sensor_id;sensor_type;location;lat;lon;timestamp;pressure;altitude;pressure_sealevel;temperature;humidity
39491;BME280;25175;50.140;18.990;2023-02-14T00:01:25;100321.13;;;4.09;69.06
39491;BME280;25175;50.140;18.990;2023-02-14T00:04:38;100326.34;;;4.09;68.82
39491;BME280;25175;50.140;18.990;2023-02-14T00:07:48;100317.81;;;4.07;68.91
39491;BME280;25175;50.140;18.990;2023-02-14T00:11:10;100250.94;;;3.66;68.73
39491;BME280;25175;50.140;18.990;2023-02-14T00:14:21;100314.28;;;4.08;68.75
39491;BME280;25175;50.140;18.990;2023-02-14T00:17:55;100321.38;;;4.06;68.95
39491;BME280;25175;50.140;18.990;2023-02-14T00:21:15;100319.94;;;4.02;69.07
39491;BME280;25175;50.140;18.990;2023-02-14T00:24:36;100325.13;;;4.02;68.95
39491;BME280;25175;50.140;18.990;2023-02-14T00:27:42;100325.28;;;4.00;69.14
39491;BME280;25175;50.140;18.990;2023-02-14T00:30:59;100330.34;;;4.02;69.32
39491;BME280;25175;50.140;18.990;2023-02-14T00:34:17;100330.00;;;4.06;69.33
39491;BME280;25175;50.140;18.990;2023-02-14T00:37:23;100331.53;;;4.09;68.78
39491;BME280;25175;50.140;18.990;2023-02-14T00:40:42;100325.84;;;4.15;68.86
39491;BME280;25175;50.140;18.990;2023-02-14T00:44:41;100231.63;;;3.59;68.65
39491;BME280;25175;50.140;18.990;2023-02-14T00:47:53;100333.84;;;4.23;68.07
39491;BME280;25175;50.140;18.990;2023-02-14T00:51:04;100332.88;;;4.24;68.23
39491;BME280;25175;50.140;18.990;2023-02-14T00:54:22;100334.66;;;4.23;68.37
39491;BME280;25175;50.140;18.990;2023-02-14T00:57:31;100342.47;;;4.23;67.89
39491;BME280;25175;50.140;18.990;2023-02-14T01:00:59;100344.22;;;4.23;67.75
39491;BME280;25175;50.140;18.990;2023-02-14T01:04:08;100348.72;;;4.21;68.05
39491;BME280;25175;50.140;18.990;2023-02-14T01:07:19;100335.75;;;4.21;67.71
39491;BME280;25175;50.140;18.990;2023-02-14T01:14:28;100333.03;;;4.22;67.78
39491;BME280;25175;50.140;18.990;2023-02-14T01:17:41;100331.22;;;4.23;67.39
39491;BME280;25175;50.140;18.990;2023-02-14T01:20:49;100320.88;;;4.12;67.71
39491;BME280;25175;50.140;18.990;2023-02-14T01:24:03;100293.28;;;4.00;67.76
39491;BME280;25175;50.140;18.990;2023-02-14T01:30:39;100321.34;;;4.17;67.55
39491;BME280;25175;50.140;18.990;2023-02-14T01:33:47;100320.53;;;4.16;67.64
39491;BME280;25175;50.140;18.990;2023-02-14T01:36:59;100320.16;;;4.21;67.68
39491;BME280;25175;50.140;18.990;2023-02-14T01:51:38;100297.16;;;4.16;66.54
39491;BME280;25175;50.140;18.990;2023-02-14T01:54:56;100297.94;;;4.17;66.85
39491;BME280;25175;50.140;18.990;2023-02-14T01:59:22;100299.03;;;4.14;66.88
39491;BME280;25175;50.140;18.990;2023-02-14T02:02:04;100296.81;;;4.10;66.87
39491;BME280;25175;50.140;18.990;2023-02-14T02:06:12;100291.84;;;4.07;67.05
39491;BME280;25175;50.140;18.990;2023-02-14T02:13:32;100284.50;;;4.12;66.61
39491;BME280;25175;50.140;18.990;2023-02-14T02:18:05;100291.50;;;4.11;66.73
39491;BME280;25175;50.140;18.990;2023-02-14T02:38:54;100295.50;;;4.04;66.23
39491;BME280;25175;50.140;18.990;2023-02-14T02:46:24;100215.34;;;3.57;65.62
39491;BME280;25175;50.140;18.990;2023-02-14T03:02:54;100307.41;;;4.07;65.58
39491;BME280;25175;50.140;18.990;2023-02-14T03:06:30;100309.09;;;4.08;65.59
39491;BME280;25175;50.140;18.990;2023-02-14T03:09:56;100313.19;;;4.10;65.33
39491;BME280;25175;50.140;18.990;2023-02-14T03:17:54;100303.03;;;4.18;65.08
39491;BME280;25175;50.140;18.990;2023-02-14T03:21:53;100264.97;;;3.97;64.71
39491;BME280;25175;50.140;18.990;2023-02-14T03:25:23;100303.72;;;4.20;64.54
39491;BME280;25175;50.140;18.990;2023-02-14T03:38:19;100306.25;;;4.11;64.01
39491;BME280;25175;50.140;18.990;2023-02-14T03:42:02;99877.16;;;1.46;64.13
39491;BME280;25175;50.140;18.990;2023-02-14T03:54:41;100308.38;;;4.06;63.86
39491;BME280;25175;50.140;18.990;2023-02-14T04:02:30;100296.41;;;3.83;63.85
39491;BME280;25175;50.140;18.990;2023-02-14T04:06:36;100311.94;;;3.94;64.07
39491;BME280;25175;50.140;18.990;2023-02-14T04:32:29;100304.66;;;3.88;63.69
39491;BME280;25175;50.140;18.990;2023-02-14T04:36:29;99966.41;;;1.84;63.56
39491;BME280;25175;50.140;18.990;2023-02-14T04:58:04;100314.06;;;3.78;63.83
39491;BME280;25175;50.140;18.990;2023-02-14T05:06:37;100325.91;;;3.82;63.38
39491;BME280;25175;50.140;18.990;2023-02-14T05:09:44;100392.47;;;3.83;63.69
39491;BME280;25175;50.140;18.990;2023-02-14T05:13:10;100333.69;;;3.82;63.72
39491;BME280;25175;50.140;18.990;2023-02-14T05:20:17;100338.97;;;3.91;63.75
39491;BME280;25175;50.140;18.990;2023-02-14T05:23:47;100330.00;;;3.95;63.74
39491;BME280;25175;50.140;18.990;2023-02-14T05:26:54;100341.09;;;3.97;63.40
39491;BME280;25175;50.140;18.990;2023-02-14T05:31:06;100339.34;;;3.98;63.56
39491;BME280;25175;50.140;18.990;2023-02-14T05:34:36;100342.75;;;3.98;63.74
39491;BME280;25175;50.140;18.990;2023-02-14T05:37:54;100349.47;;;4.01;63.79
39491;BME280;25175;50.140;18.990;2023-02-14T05:41:32;100346.88;;;4.01;63.57
39491;BME280;25175;50.140;18.990;2023-02-14T05:44:57;100365.88;;;3.79;63.56
39491;BME280;25175;50.140;18.990;2023-02-14T05:48:36;100343.97;;;3.94;63.81
39491;BME280;25175;50.140;18.990;2023-02-14T05:52:23;100340.06;;;3.89;63.92
39491;BME280;25175;50.140;18.990;2023-02-14T05:55:49;100346.69;;;3.82;64.18
39491;BME280;25175;50.140;18.990;2023-02-14T05:59:32;100267.50;;;3.32;64.27
39491;BME280;25175;50.140;18.990;2023-02-14T06:06:57;100329.19;;;3.73;64.18
39491;BME280;25175;50.140;18.990;2023-02-14T06:10:06;100345.59;;;3.73;64.46
39491;BME280;25175;50.140;18.990;2023-02-14T06:13:26;100362.00;;;3.85;64.36
39491;BME280;25175;50.140;18.990;2023-02-14T06:16:50;100352.34;;;3.87;64.22
39491;BME280;25175;50.140;18.990;2023-02-14T06:23:23;100359.19;;;3.88;64.28
39491;BME280;25175;50.140;18.990;2023-02-14T06:26:38;100358.00;;;3.92;63.75
39491;BME280;25175;50.140;18.990;2023-02-14T06:30:00;100359.66;;;3.93;64.04
39491;BME280;25175;50.140;18.990;2023-02-14T06:33:34;100361.41;;;3.92;63.92
39491;BME280;25175;50.140;18.990;2023-02-14T06:40:42;100207.63;;;3.02;64.18
39491;BME280;25175;50.140;18.990;2023-02-14T06:43:52;100359.75;;;3.91;64.09
39491;BME280;25175;50.140;18.990;2023-02-14T06:51:35;100364.25;;;3.89;64.04
39491;BME280;25175;50.140;18.990;2023-02-14T06:58:19;100362.84;;;3.85;64.21
39491;BME280;25175;50.140;18.990;2023-02-14T07:01:49;100350.81;;;3.84;64.20
39491;BME280;25175;50.140;18.990;2023-02-14T07:05:00;100369.09;;;3.94;64.17
39491;BME280;25175;50.140;18.990;2023-02-14T07:12:11;100383.03;;;3.93;64.42
39491;BME280;25175;50.140;18.990;2023-02-14T07:15:24;100353.13;;;3.76;64.15
39491;BME280;25175;50.140;18.990;2023-02-14T07:18:35;100046.22;;;1.90;64.12
39491;BME280;25175;50.140;18.990;2023-02-14T07:21:46;100383.50;;;3.87;64.57
39491;BME280;25175;50.140;18.990;2023-02-14T07:28:40;100362.13;;;3.72;64.63
39491;BME280;25175;50.140;18.990;2023-02-14T07:31:48;99957.63;;;1.30;64.60
39491;BME280;25175;50.140;18.990;2023-02-14T07:36:14;100309.59;;;3.47;64.44
39491;BME280;25175;50.140;18.990;2023-02-14T07:39:40;100380.53;;;3.91;64.10
39491;BME280;25175;50.140;18.990;2023-02-14T07:48:05;100363.22;;;3.81;64.09
39491;BME280;25175;50.140;18.990;2023-02-14T07:51:34;100381.97;;;3.95;64.05
39491;BME280;25175;50.140;18.990;2023-02-14T07:54:43;100222.94;;;3.05;63.77
39491;BME280;25175;50.140;18.990;2023-02-14T07:58:11;100382.19;;;4.03;63.82
39491;BME280;25175;50.140;18.990;2023-02-14T08:01:29;100380.88;;;4.09;63.76
39491;BME280;25175;50.140;18.990;2023-02-14T08:04:49;100383.22;;;4.12;62.93
39491;BME280;25175;50.140;18.990;2023-02-14T08:07:56;100378.88;;;4.12;63.33
39491;BME280;25175;50.140;18.990;2023-02-14T08:11:18;100369.16;;;4.14;63.58
39491;BME280;25175;50.140;18.990;2023-02-14T08:14:40;100371.88;;;4.13;63.77
39491;BME280;25175;50.140;18.990;2023-02-14T08:17:57;100384.88;;;4.13;62.93
39491;BME280;25175;50.140;18.990;2023-02-14T08:21:11;100369.56;;;3.99;63.11
39491;BME280;25175;50.140;18.990;2023-02-14T08:24:30;100340.16;;;3.76;63.04
39491;BME280;25175;50.140;18.990;2023-02-14T08:27:51;100389.28;;;4.01;62.88
39491;BME280;25175;50.140;18.990;2023-02-14T08:31:27;100390.81;;;4.04;63.40
39491;BME280;25175;50.140;18.990;2023-02-14T08:34:39;100393.03;;;4.08;63.34
39491;BME280;25175;50.140;18.990;2023-02-14T08:37:53;100388.69;;;4.09;63.24
39491;BME280;25175;50.140;18.990;2023-02-14T08:41:13;100384.28;;;4.09;62.50
39491;BME280;25175;50.140;18.990;2023-02-14T08:44:21;100388.41;;;4.12;63.32
39491;BME280;25175;50.140;18.990;2023-02-14T08:48:11;100406.25;;;4.16;62.81
39491;BME280;25175;50.140;18.990;2023-02-14T08:52:02;100399.16;;;4.18;62.95
39491;BME280;25175;50.140;18.990;2023-02-14T08:55:13;100406.84;;;4.20;63.21
39491;BME280;25175;50.140;18.990;2023-02-14T08:58:20;100371.66;;;4.05;63.13
39491;BME280;25175;50.140;18.990;2023-02-14T09:01:32;100406.59;;;4.23;63.00
39491;BME280;25175;50.140;18.990;2023-02-14T09:05:16;100402.34;;;4.22;62.92
39491;BME280;25175;50.140;18.990;2023-02-14T09:08:26;100410.41;;;4.19;62.87
39491;BME280;25175;50.140;18.990;2023-02-14T09:12:04;100416.41;;;4.19;62.58
39491;BME280;25175;50.140;18.990;2023-02-14T09:18:47;100410.97;;;4.22;62.88
39491;BME280;25175;50.140;18.990;2023-02-14T09:21:56;100405.78;;;4.22;62.72
39491;BME280;25175;50.140;18.990;2023-02-14T09:25:07;100405.63;;;4.24;63.21
39491;BME280;25175;50.140;18.990;2023-02-14T09:28:22;100348.19;;;3.95;63.39
39491;BME280;25175;50.140;18.990;2023-02-14T09:32:02;100406.56;;;4.34;63.07
39491;BME280;25175;50.140;18.990;2023-02-14T09:35:11;100409.88;;;4.36;62.59
39491;BME280;25175;50.140;18.990;2023-02-14T09:38:35;100419.34;;;4.37;62.61
39491;BME280;25175;50.140;18.990;2023-02-14T09:42:07;100419.91;;;4.40;62.90
39491;BME280;25175;50.140;18.990;2023-02-14T09:49:15;100408.78;;;4.49;62.36
39491;BME280;25175;50.140;18.990;2023-02-14T09:52:32;100418.81;;;4.54;62.80
39491;BME280;25175;50.140;18.990;2023-02-14T09:55:45;100408.88;;;4.59;62.74
39491;BME280;25175;50.140;18.990;2023-02-14T09:59:12;100392.69;;;4.55;62.63
39491;BME280;25175;50.140;18.990;2023-02-14T10:06:16;100409.88;;;4.78;62.29
39491;BME280;25175;50.140;18.990;2023-02-14T10:09:59;100404.75;;;4.88;62.27
39491;BME280;25175;50.140;18.990;2023-02-14T10:13:25;100410.28;;;4.94;62.46
39491;BME280;25175;50.140;18.990;2023-02-14T10:16:45;100412.09;;;5.03;61.80
39491;BME280;25175;50.140;18.990;2023-02-14T10:20:02;100233.53;;;4.00;60.60
39491;BME280;25175;50.140;18.990;2023-02-14T10:23:27;100420.06;;;5.02;60.79
39491;BME280;25175;50.140;18.990;2023-02-14T10:26:48;100409.50;;;5.03;61.04
39491;BME280;25175;50.140;18.990;2023-02-14T10:30:14;100409.38;;;5.05;60.60
39491;BME280;25175;50.140;18.990;2023-02-14T10:33:38;100412.25;;;5.02;60.16
39491;BME280;25175;50.140;18.990;2023-02-14T10:37:30;100405.25;;;5.02;60.75
39491;BME280;25175;50.140;18.990;2023-02-14T10:41:20;100408.06;;;5.10;61.00
39491;BME280;25175;50.140;18.990;2023-02-14T10:44:49;100408.13;;;5.20;60.81
39491;BME280;25175;50.140;18.990;2023-02-14T10:48:18;100405.97;;;5.25;60.46
39491;BME280;25175;50.140;18.990;2023-02-14T10:52:07;100403.53;;;5.33;60.16
39491;BME280;25175;50.140;18.990;2023-02-14T10:55:38;100399.88;;;5.35;59.72
39491;BME280;25175;50.140;18.990;2023-02-14T10:59:16;100397.91;;;5.28;59.43
39491;BME280;25175;50.140;18.990;2023-02-14T11:06:32;100385.22;;;5.14;59.30
39491;BME280;25175;50.140;18.990;2023-02-14T11:09:45;100361.16;;;5.01;59.73
39491;BME280;25175;50.140;18.990;2023-02-14T11:17:34;100378.81;;;5.18;58.02
39491;BME280;25175;50.140;18.990;2023-02-14T11:20:39;100374.69;;;5.15;58.36
39491;BME280;25175;50.140;18.990;2023-02-14T11:23:48;100393.47;;;5.19;58.12
39491;BME280;25175;50.140;18.990;2023-02-14T11:26:58;100382.66;;;5.23;57.72
39491;BME280;25175;50.140;18.990;2023-02-14T11:30:19;100349.31;;;5.08;57.58
39491;BME280;25175;50.140;18.990;2023-02-14T11:33:40;100376.38;;;5.26;57.63
39491;BME280;25175;50.140;18.990;2023-02-14T11:37:25;100369.84;;;5.31;57.78
39491;BME280;25175;50.140;18.990;2023-02-14T11:40:58;100364.91;;;5.28;57.90
39491;BME280;25175;50.140;18.990;2023-02-14T11:44:14;100370.22;;;5.27;57.85
39491;BME280;25175;50.140;18.990;2023-02-14T11:47:27;100314.16;;;4.93;57.13
39491;BME280;25175;50.140;18.990;2023-02-14T11:51:42;100364.44;;;5.23;57.48
39491;BME280;25175;50.140;18.990;2023-02-14T11:54:50;100358.81;;;5.18;57.27
39491;BME280;25175;50.140;18.990;2023-02-14T11:58:26;100352.06;;;5.16;57.62
39491;BME280;25175;50.140;18.990;2023-02-14T12:01:45;100352.34;;;5.13;57.69
39491;BME280;25175;50.140;18.990;2023-02-14T12:05:02;100355.19;;;5.10;57.94
39491;BME280;25175;50.140;18.990;2023-02-14T12:08:48;100349.03;;;5.11;58.05
39491;BME280;25175;50.140;18.990;2023-02-14T12:12:35;100316.25;;;4.99;58.08
39491;BME280;25175;50.140;18.990;2023-02-14T12:16:00;100346.88;;;5.16;57.88
39491;BME280;25175;50.140;18.990;2023-02-14T12:24:05;100333.09;;;5.25;57.86
39491;BME280;25175;50.140;18.990;2023-02-14T12:27:27;100337.09;;;5.29;57.50
39491;BME280;25175;50.140;18.990;2023-02-14T12:30:57;100309.13;;;5.21;57.51
39491;BME280;25175;50.140;18.990;2023-02-14T12:34:19;100315.09;;;5.42;57.57
39491;BME280;25175;50.140;18.990;2023-02-14T12:37:39;100308.94;;;5.43;57.35
39491;BME280;25175;50.140;18.990;2023-02-14T12:45:06;100312.34;;;5.44;57.90
39491;BME280;25175;50.140;18.990;2023-02-14T12:48:51;100313.75;;;5.48;57.50
39491;BME280;25175;50.140;18.990;2023-02-14T12:52:31;100314.16;;;5.43;57.21
39491;BME280;25175;50.140;18.990;2023-02-14T12:56:07;100190.84;;;4.75;57.33
39491;BME280;25175;50.140;18.990;2023-02-14T12:59:34;100309.06;;;5.42;57.39
39491;BME280;25175;50.140;18.990;2023-02-14T13:03:37;100299.34;;;5.44;57.40
39491;BME280;25175;50.140;18.990;2023-02-14T13:07:25;100291.50;;;5.34;57.28
39491;BME280;25175;50.140;18.990;2023-02-14T13:11:30;100302.22;;;5.41;57.41
39491;BME280;25175;50.140;18.990;2023-02-14T13:15:09;100285.88;;;5.39;57.38
39491;BME280;25175;50.140;18.990;2023-02-14T13:18:38;100294.22;;;5.33;57.70
39491;BME280;25175;50.140;18.990;2023-02-14T13:21:57;100296.94;;;5.31;57.73
39491;BME280;25175;50.140;18.990;2023-02-14T13:25:21;100285.06;;;5.29;57.54
39491;BME280;25175;50.140;18.990;2023-02-14T13:28:37;100284.34;;;5.27;57.55
39491;BME280;25175;50.140;18.990;2023-02-14T13:32:15;100288.59;;;5.28;57.01
39491;BME280;25175;50.140;18.990;2023-02-14T13:35:32;100283.53;;;5.26;57.36
39491;BME280;25175;50.140;18.990;2023-02-14T13:38:44;100272.16;;;5.27;57.20
39491;BME280;25175;50.140;18.990;2023-02-14T13:41:54;100265.31;;;5.26;57.39
39491;BME280;25175;50.140;18.990;2023-02-14T13:53:01;100109.50;;;4.33;56.94
39491;BME280;25175;50.140;18.990;2023-02-14T13:56:41;100283.44;;;5.67;56.90
39491;BME280;25175;50.140;18.990;2023-02-14T14:03:55;100281.72;;;5.57;56.48
39491;BME280;25175;50.140;18.990;2023-02-14T14:07:21;100297.88;;;5.51;56.83
39491;BME280;25175;50.140;18.990;2023-02-14T14:10:57;100286.19;;;5.45;57.18
39491;BME280;25175;50.140;18.990;2023-02-14T14:14:34;100295.09;;;5.43;57.16
39491;BME280;25175;50.140;18.990;2023-02-14T14:21:32;100286.72;;;5.39;57.12
39491;BME280;25175;50.140;18.990;2023-02-14T14:25:09;100278.50;;;5.44;57.26
39491;BME280;25175;50.140;18.990;2023-02-14T14:28:21;100289.47;;;5.47;57.13
39491;BME280;25175;50.140;18.990;2023-02-14T14:31:32;100283.91;;;5.52;57.12
39491;BME280;25175;50.140;18.990;2023-02-14T14:34:47;100284.34;;;5.57;56.84
39491;BME280;25175;50.140;18.990;2023-02-14T14:37:59;100290.09;;;5.60;56.27
39491;BME280;25175;50.140;18.990;2023-02-14T14:44:57;100248.34;;;5.41;56.17
39491;BME280;25175;50.140;18.990;2023-02-14T14:48:23;100242.88;;;5.35;55.97
39491;BME280;25175;50.140;18.990;2023-02-14T14:51:35;100290.56;;;5.75;55.83
39491;BME280;25175;50.140;18.990;2023-02-14T14:55:04;100284.25;;;5.68;55.93
39491;BME280;25175;50.140;18.990;2023-02-14T14:58:32;100290.44;;;5.76;55.88
39491;BME280;25175;50.140;18.990;2023-02-14T15:01:49;100282.47;;;5.78;55.39
39491;BME280;25175;50.140;18.990;2023-02-14T15:05:36;100286.88;;;5.77;55.58
39491;BME280;25175;50.140;18.990;2023-02-14T15:09:09;100276.59;;;5.76;55.70
39491;BME280;25175;50.140;18.990;2023-02-14T15:12:26;100271.13;;;5.79;56.11
39491;BME280;25175;50.140;18.990;2023-02-14T15:15:51;100245.81;;;5.60;55.60
39491;BME280;25175;50.140;18.990;2023-02-14T15:19:09;100273.44;;;5.72;55.85
39491;BME280;25175;50.140;18.990;2023-02-14T15:22:27;100277.81;;;5.72;56.37
39491;BME280;25175;50.140;18.990;2023-02-14T15:25:39;100270.16;;;5.70;56.40
39491;BME280;25175;50.140;18.990;2023-02-14T15:29:00;100270.41;;;5.67;56.51
39491;BME280;25175;50.140;18.990;2023-02-14T15:32:13;100276.00;;;5.63;56.31
39491;BME280;25175;50.140;18.990;2023-02-14T15:35:39;100277.19;;;5.59;56.83
39491;BME280;25175;50.140;18.990;2023-02-14T15:38:51;100285.13;;;5.57;56.50
39491;BME280;25175;50.140;18.990;2023-02-14T15:42:05;100288.28;;;5.51;55.88
39491;BME280;25175;50.140;18.990;2023-02-14T15:45:45;100295.53;;;5.48;55.67
39491;BME280;25175;50.140;18.990;2023-02-14T15:53:06;100285.94;;;5.48;55.84
39491;BME280;25175;50.140;18.990;2023-02-14T15:56:39;100292.78;;;5.49;56.14
39491;BME280;25175;50.140;18.990;2023-02-14T15:59:55;100295.38;;;5.40;56.24
39491;BME280;25175;50.140;18.990;2023-02-14T16:03:20;100291.00;;;5.50;56.08
39491;BME280;25175;50.140;18.990;2023-02-14T16:06:37;100235.69;;;5.18;56.02
39491;BME280;25175;50.140;18.990;2023-02-14T16:10:20;100301.84;;;5.55;55.92
39491;BME280;25175;50.140;18.990;2023-02-14T16:13:33;100303.50;;;5.56;55.74
39491;BME280;25175;50.140;18.990;2023-02-14T16:16:59;100305.97;;;5.57;55.86
39491;BME280;25175;50.140;18.990;2023-02-14T16:20:41;100316.50;;;5.56;55.56
39491;BME280;25175;50.140;18.990;2023-02-14T16:24:11;100304.19;;;5.58;55.98
39491;BME280;25175;50.140;18.990;2023-02-14T16:27:58;100305.72;;;5.60;56.06
39491;BME280;25175;50.140;18.990;2023-02-14T16:31:06;100320.38;;;5.61;55.78
39491;BME280;25175;50.140;18.990;2023-02-14T16:34:21;100311.88;;;5.59;55.58
39491;BME280;25175;50.140;18.990;2023-02-14T16:37:31;100314.06;;;5.54;56.06
39491;BME280;25175;50.140;18.990;2023-02-14T16:40:46;100322.00;;;5.53;55.82
39491;BME280;25175;50.140;18.990;2023-02-14T16:43:56;100295.75;;;5.35;56.17
39491;BME280;25175;50.140;18.990;2023-02-14T16:47:32;100325.28;;;5.55;56.15
39491;BME280;25175;50.140;18.990;2023-02-14T16:50:51;100309.78;;;5.53;55.86
39491;BME280;25175;50.140;18.990;2023-02-14T16:54:09;100320.34;;;5.52;56.41
39491;BME280;25175;50.140;18.990;2023-02-14T16:57:27;100322.25;;;5.50;56.34
39491;BME280;25175;50.140;18.990;2023-02-14T17:04:52;100333.22;;;5.53;56.64
39491;BME280;25175;50.140;18.990;2023-02-14T17:08:30;100329.81;;;5.53;56.54
39491;BME280;25175;50.140;18.990;2023-02-14T17:15:57;100327.00;;;5.45;56.55
39491;BME280;25175;50.140;18.990;2023-02-14T17:19:23;100322.53;;;5.47;56.63
39491;BME280;25175;50.140;18.990;2023-02-14T17:22:33;100333.38;;;5.52;57.10
39491;BME280;25175;50.140;18.990;2023-02-14T17:29:58;100329.41;;;5.57;56.65
39491;BME280;25175;50.140;18.990;2023-02-14T17:33:15;100326.69;;;5.59;56.73
39491;BME280;25175;50.140;18.990;2023-02-14T17:36:28;100326.00;;;5.57;56.10
39491;BME280;25175;50.140;18.990;2023-02-14T17:39:42;100331.22;;;5.57;56.67
39491;BME280;25175;50.140;18.990;2023-02-14T17:42:52;100327.63;;;5.58;56.86
39491;BME280;25175;50.140;18.990;2023-02-14T17:54:18;100332.72;;;5.59;56.35
39491;BME280;25175;50.140;18.990;2023-02-14T18:02:04;100330.50;;;5.55;56.66
39491;BME280;25175;50.140;18.990;2023-02-14T18:05:21;100338.44;;;5.53;56.36
39491;BME280;25175;50.140;18.990;2023-02-14T18:08:29;100331.97;;;5.48;56.07
39491;BME280;25175;50.140;18.990;2023-02-14T18:12:01;100335.34;;;5.39;56.27
39491;BME280;25175;50.140;18.990;2023-02-14T18:15:09;100331.91;;;5.29;56.32
39491;BME280;25175;50.140;18.990;2023-02-14T18:22:30;100263.09;;;4.92;56.65
39491;BME280;25175;50.140;18.990;2023-02-14T18:26:00;100332.59;;;5.31;57.18
39491;BME280;25175;50.140;18.990;2023-02-14T18:29:12;100329.03;;;5.32;57.40
39491;BME280;25175;50.140;18.990;2023-02-14T18:32:40;100326.00;;;5.36;56.95
39491;BME280;25175;50.140;18.990;2023-02-14T18:35:47;100322.47;;;5.37;57.06
39491;BME280;25175;50.140;18.990;2023-02-14T18:38:56;100294.06;;;5.25;57.12
39491;BME280;25175;50.140;18.990;2023-02-14T18:42:04;100316.19;;;5.40;57.21
39491;BME280;25175;50.140;18.990;2023-02-14T18:45:14;100310.56;;;5.35;57.15
39491;BME280;25175;50.140;18.990;2023-02-14T18:48:22;100316.97;;;5.31;57.53
39491;BME280;25175;50.140;18.990;2023-02-14T18:51:33;100319.56;;;5.31;57.00
39491;BME280;25175;50.140;18.990;2023-02-14T18:54:44;100309.16;;;5.31;57.19
39491;BME280;25175;50.140;18.990;2023-02-14T18:57:52;100316.69;;;5.34;57.46
39491;BME280;25175;50.140;18.990;2023-02-14T19:01:07;100309.47;;;5.37;57.24
39491;BME280;25175;50.140;18.990;2023-02-14T19:04:14;100308.38;;;5.40;57.00
39491;BME280;25175;50.140;18.990;2023-02-14T19:08:10;100311.66;;;5.42;57.25
39491;BME280;25175;50.140;18.990;2023-02-14T19:11:23;100308.09;;;5.43;57.13
39491;BME280;25175;50.140;18.990;2023-02-14T19:18:06;100301.25;;;5.42;57.26
39491;BME280;25175;50.140;18.990;2023-02-14T19:21:21;100296.31;;;5.39;57.27
39491;BME280;25175;50.140;18.990;2023-02-14T19:24:30;100235.88;;;4.96;57.42
39491;BME280;25175;50.140;18.990;2023-02-14T19:27:37;100288.84;;;5.25;57.41
39491;BME280;25175;50.140;18.990;2023-02-14T19:31:19;100295.75;;;5.35;57.60
39491;BME280;25175;50.140;18.990;2023-02-14T19:35:01;100300.94;;;5.35;57.67
39491;BME280;25175;50.140;18.990;2023-02-14T19:38:10;100294.66;;;5.38;57.21
39491;BME280;25175;50.140;18.990;2023-02-14T19:41:50;100293.84;;;5.37;57.12
39491;BME280;25175;50.140;18.990;2023-02-14T19:45:06;100292.88;;;5.38;57.20
39491;BME280;25175;50.140;18.990;2023-02-14T19:48:12;100269.69;;;5.26;57.54
39491;BME280;25175;50.140;18.990;2023-02-14T19:51:38;100304.66;;;5.42;57.48
39491;BME280;25175;50.140;18.990;2023-02-14T19:55:23;100307.66;;;5.38;57.43
39491;BME280;25175;50.140;18.990;2023-02-14T19:58:30;100309.72;;;5.34;57.75
39491;BME280;25175;50.140;18.990;2023-02-14T20:06:07;100315.59;;;5.36;57.84
39491;BME280;25175;50.140;18.990;2023-02-14T20:13:10;100307.66;;;5.38;57.85
39491;BME280;25175;50.140;18.990;2023-02-14T20:16:27;100314.41;;;5.40;57.99
39491;BME280;25175;50.140;18.990;2023-02-14T20:19:36;100308.38;;;5.40;58.13
39491;BME280;25175;50.140;18.990;2023-02-14T20:22:45;100301.78;;;5.36;57.84
39491;BME280;25175;50.140;18.990;2023-02-14T20:25:56;100308.19;;;5.32;57.70
39491;BME280;25175;50.140;18.990;2023-02-14T20:29:04;100287.22;;;5.24;58.27
39491;BME280;25175;50.140;18.990;2023-02-14T20:32:14;100219.63;;;4.83;57.98
39491;BME280;25175;50.140;18.990;2023-02-14T20:39:13;100299.78;;;5.19;58.20
39491;BME280;25175;50.140;18.990;2023-02-14T20:42:28;100306.88;;;5.17;58.56
39491;BME280;25175;50.140;18.990;2023-02-14T20:45:36;100290.81;;;5.12;58.51
39491;BME280;25175;50.140;18.990;2023-02-14T20:52:08;100305.44;;;5.24;58.37
39491;BME280;25175;50.140;18.990;2023-02-14T20:58:52;100300.22;;;5.24;58.33
39491;BME280;25175;50.140;18.990;2023-02-14T21:02:00;100281.00;;;5.15;58.42
39491;BME280;25175;50.140;18.990;2023-02-14T21:05:09;100308.38;;;4.89;58.49
39491;BME280;25175;50.140;18.990;2023-02-14T21:08:33;100295.53;;;5.18;58.31
39491;BME280;25175;50.140;18.990;2023-02-14T21:11:50;100299.06;;;5.17;58.63
39491;BME280;25175;50.140;18.990;2023-02-14T21:14:59;100286.84;;;5.08;58.60
39491;BME280;25175;50.140;18.990;2023-02-14T21:18:07;100300.03;;;5.16;58.61
39491;BME280;25175;50.140;18.990;2023-02-14T21:21:19;100292.22;;;5.16;58.71
39491;BME280;25175;50.140;18.990;2023-02-14T21:24:35;100294.81;;;5.16;58.51
39491;BME280;25175;50.140;18.990;2023-02-14T21:28:01;100292.22;;;5.16;58.64
39491;BME280;25175;50.140;18.990;2023-02-14T21:31:15;100285.38;;;5.15;58.80
39491;BME280;25175;50.140;18.990;2023-02-14T21:34:49;100282.78;;;5.15;58.78
39491;BME280;25175;50.140;18.990;2023-02-14T21:42:02;100277.81;;;5.12;58.86
39491;BME280;25175;50.140;18.990;2023-02-14T21:45:29;100264.13;;;5.10;58.98
39491;BME280;25175;50.140;18.990;2023-02-14T21:49:02;100261.09;;;5.05;58.81
39491;BME280;25175;50.140;18.990;2023-02-14T21:52:22;100257.59;;;4.95;58.63
39491;BME280;25175;50.140;18.990;2023-02-14T21:55:28;100263.03;;;4.82;59.02
39491;BME280;25175;50.140;18.990;2023-02-14T21:58:37;100262.94;;;4.73;59.37
39491;BME280;25175;50.140;18.990;2023-02-14T22:01:43;100247.41;;;4.62;59.68
39491;BME280;25175;50.140;18.990;2023-02-14T22:04:54;100242.44;;;4.49;60.00
39491;BME280;25175;50.140;18.990;2023-02-14T22:08:01;100299.69;;;4.59;60.02
39491;BME280;25175;50.140;18.990;2023-02-14T22:11:09;100261.13;;;4.64;59.83